createdAt,value
2022-08-01T00:00:41.613Z,990.64
2022-08-01T00:01:43.322Z,990.63
2022-08-01T00:02:45.171Z,990.64
2022-08-01T00:03:46.846Z,990.68
2022-08-01T00:04:48.601Z,990.65
2022-08-01T00:05:50.279Z,990.68
2022-08-01T00:06:51.984Z,990.64
2022-08-01T00:07:53.786Z,990.66
2022-08-01T00:08:55.520Z,990.63
2022-08-01T00:09:57.260Z,990.69
2022-08-01T00:11:02.571Z,990.66
2022-08-01T00:12:00.690Z,990.69
2022-08-01T00:13:02.756Z,990.66
2022-08-01T00:14:04.190Z,990.65
2022-08-01T00:15:06.038Z,990.68
2022-08-01T00:16:07.662Z,990.65
2022-08-01T00:17:09.526Z,990.66
2022-08-01T00:18:11.206Z,990.66
2022-08-01T00:19:12.808Z,990.68
2022-08-01T00:20:14.699Z,990.7
2022-08-01T00:21:16.273Z,990.71
2022-08-01T00:22:18.016Z,990.75
2022-08-01T00:23:19.920Z,990.77
2022-08-01T00:24:21.479Z,990.75
2022-08-01T00:25:34.074Z,990.76
2022-08-01T00:26:25.024Z,990.73
2022-08-01T00:27:26.813Z,990.76
2022-08-01T00:28:28.423Z,990.73
2022-08-01T00:30:10.212Z,990.74
2022-08-01T00:30:31.886Z,990.75
2022-08-01T00:31:33.661Z,990.8
2022-08-01T00:32:35.493Z,990.75
2022-08-01T00:33:37.090Z,990.79
2022-08-01T00:34:38.951Z,990.78
2022-08-01T00:35:40.590Z,990.82
2022-08-01T00:36:42.413Z,990.79
2022-08-01T00:37:44.023Z,990.78
2022-08-01T00:38:45.835Z,990.77
2022-08-01T00:39:47.552Z,990.77
2022-08-01T00:40:49.234Z,990.74
2022-08-01T00:41:50.961Z,990.74
2022-08-01T00:42:52.765Z,990.75
2022-08-01T00:43:54.439Z,990.77
2022-08-01T00:44:56.220Z,990.77
2022-08-01T00:45:57.956Z,990.76
2022-08-01T00:46:59.942Z,990.81
2022-08-01T00:48:01.511Z,990.78
2022-08-01T00:49:03.142Z,990.77
2022-08-01T00:50:04.933Z,990.76
2022-08-01T00:51:06.528Z,990.78
2022-08-01T00:52:08.731Z,990.82
2022-08-01T00:53:09.989Z,990.81
2022-08-01T00:54:11.763Z,990.79
2022-08-01T00:55:15.000Z,990.79
2022-08-01T00:56:15.298Z,990.78
2022-08-01T00:57:22.751Z,990.75
2022-08-01T00:58:18.807Z,990.76
2022-08-01T00:59:20.562Z,990.75
2022-08-01T01:00:27.093Z,990.77
2022-08-01T01:01:23.904Z,990.76
2022-08-01T01:02:25.620Z,990.79
2022-08-01T01:03:56.261Z,990.79
2022-08-01T01:04:29.109Z,990.8
2022-08-01T01:05:33.577Z,990.78
2022-08-01T01:06:32.679Z,990.77
2022-08-01T01:07:34.347Z,990.82
2022-08-01T01:08:36.046Z,990.83
2022-08-01T01:09:37.756Z,990.81
2022-08-01T01:10:39.836Z,990.83
2022-08-01T01:11:41.224Z,990.81
2022-08-01T01:12:45.800Z,990.78
2022-08-01T01:13:50.394Z,990.81
2022-08-01T01:14:46.502Z,990.84
2022-08-01T01:15:48.148Z,990.83
2022-08-01T01:16:49.973Z,990.85
2022-08-01T01:17:51.964Z,990.85
2022-08-01T01:18:53.365Z,990.86
2022-08-01T01:19:55.295Z,990.82
2022-08-01T01:20:57.106Z,990.83
2022-08-01T01:21:58.651Z,990.78
2022-08-01T01:23:00.533Z,990.83
2022-08-01T01:24:02.038Z,990.84
2022-08-01T01:25:03.905Z,990.83
2022-08-01T01:26:06.581Z,990.86
2022-08-01T01:27:07.251Z,990.9
2022-08-01T01:28:08.972Z,990.93
2022-08-01T01:29:10.707Z,990.91
2022-08-01T01:30:12.584Z,990.91
2022-08-01T01:31:14.311Z,990.9
2022-08-01T01:32:15.908Z,990.9
2022-08-01T01:33:17.709Z,990.89
2022-08-01T01:34:19.445Z,990.89
2022-08-01T01:35:21.130Z,990.91
2022-08-01T01:36:22.994Z,990.91
2022-08-01T01:37:24.780Z,990.89
2022-08-01T01:38:26.313Z,990.9
2022-08-01T01:39:28.039Z,990.92
2022-08-01T01:40:29.934Z,990.92
2022-08-01T01:41:31.506Z,990.98
2022-08-01T01:42:33.388Z,990.92
2022-08-01T01:43:35.030Z,990.94
2022-08-01T01:44:36.714Z,990.93
2022-08-01T01:45:38.537Z,990.95
2022-08-01T01:46:40.194Z,990.92
2022-08-01T01:47:42.056Z,990.95
2022-08-01T01:48:43.665Z,990.99
2022-08-01T01:49:45.452Z,990.96
2022-08-01T01:50:47.123Z,990.93
2022-08-01T01:51:57.410Z,990.94
2022-08-01T01:52:50.596Z,990.96
2022-08-01T01:53:52.325Z,991
2022-08-01T01:54:54.336Z,990.96
2022-08-01T01:55:55.864Z,990.96
2022-08-01T01:56:57.539Z,990.95
2022-08-01T01:57:59.276Z,990.96
2022-08-01T01:59:01.168Z,990.95
2022-08-01T02:00:02.881Z,990.97
2022-08-01T02:01:05.531Z,990.97
2022-08-01T02:02:06.793Z,990.93
2022-08-01T02:03:08.208Z,990.9
2022-08-01T02:04:10.096Z,990.96
2022-08-01T02:05:11.826Z,990.93
2022-08-01T02:06:13.159Z,990.95
2022-08-01T02:07:15.179Z,990.95
2022-08-01T02:08:16.660Z,990.97
2022-08-01T02:09:18.371Z,990.99
2022-08-01T02:10:20.258Z,990.97
2022-08-01T02:11:21.843Z,990.95
2022-08-01T02:12:23.618Z,990.99
2022-08-01T02:13:25.284Z,991
2022-08-01T02:14:27.096Z,990.96
2022-08-01T02:15:28.758Z,991.04
2022-08-01T02:16:30.687Z,991.05
2022-08-01T02:17:32.220Z,991.03
2022-08-01T02:18:34.085Z,991.03
2022-08-01T02:19:38.359Z,991.06
2022-08-01T02:20:37.429Z,991.08
2022-08-01T02:21:39.155Z,991.06
2022-08-01T02:22:41.088Z,991.11
2022-08-01T02:23:42.629Z,991.09
2022-08-01T02:24:44.502Z,991.08
2022-08-01T02:26:09.787Z,991.11
2022-08-01T02:26:47.847Z,991.12
2022-08-01T02:27:49.632Z,991.07
2022-08-01T02:28:51.310Z,991.12
2022-08-01T02:29:53.035Z,991.05
2022-08-01T02:30:54.896Z,991.05
2022-08-01T02:31:56.536Z,991.05
2022-08-01T02:32:58.259Z,991.02
2022-08-01T02:34:00.548Z,991.02
2022-08-01T02:35:01.917Z,991.01
2022-08-01T02:36:29.748Z,991.01
2022-08-01T02:37:05.327Z,991.03
2022-08-01T02:38:06.954Z,991.06
2022-08-01T02:39:08.851Z,991.01
2022-08-01T02:40:13.053Z,991.01
2022-08-01T02:41:12.679Z,991.03
2022-08-01T02:42:13.989Z,991.04
2022-08-01T02:43:15.601Z,991.05
2022-08-01T02:44:17.325Z,991.06
2022-08-01T02:45:19.345Z,991.02
2022-08-01T02:46:20.975Z,991.06
2022-08-01T02:47:22.647Z,991.03
2022-08-01T02:48:24.556Z,991.04
2022-08-01T02:49:26.500Z,991.02
2022-08-01T02:50:27.745Z,991
2022-08-01T02:51:29.580Z,991.05
2022-08-01T02:52:31.504Z,990.99
2022-08-01T02:53:44.491Z,990.92
2022-08-01T02:54:34.957Z,990.97
2022-08-01T02:55:36.570Z,990.95
2022-08-01T02:56:38.156Z,990.96
2022-08-01T02:57:45.993Z,990.96
2022-08-01T02:58:41.689Z,990.97
2022-08-01T02:59:43.468Z,990.96
2022-08-01T03:00:45.070Z,990.95
2022-08-01T03:01:46.890Z,990.92
2022-08-01T03:02:48.541Z,990.9
2022-08-01T03:03:50.418Z,990.93
2022-08-01T03:04:56.780Z,990.92
2022-08-01T03:05:53.735Z,990.92
2022-08-01T03:06:55.770Z,990.97
2022-08-01T03:08:02.788Z,990.97
2022-08-01T03:08:58.942Z,990.94
2022-08-01T03:10:00.884Z,990.94
2022-08-01T03:11:05.436Z,990.9
2022-08-01T03:12:04.654Z,990.85
2022-08-01T03:13:05.999Z,990.88
2022-08-01T03:14:07.621Z,990.91
2022-08-01T03:15:09.358Z,990.88
2022-08-01T03:16:11.078Z,990.89
2022-08-01T03:17:12.866Z,990.91
2022-08-01T03:18:14.569Z,990.92
2022-08-01T03:19:16.300Z,990.91
2022-08-01T03:20:18.043Z,990.88
2022-08-01T03:21:19.778Z,990.89
2022-08-01T03:22:21.557Z,990.86
2022-08-01T03:23:23.302Z,990.83
2022-08-01T03:24:24.967Z,990.84
2022-08-01T03:25:26.762Z,990.86
2022-08-01T03:26:28.581Z,990.85
2022-08-01T03:27:30.539Z,990.9
2022-08-01T03:28:31.969Z,990.88
2022-08-01T03:29:33.776Z,990.89
2022-08-01T03:30:35.381Z,990.92
2022-08-01T03:31:37.179Z,990.92
2022-08-01T03:32:39.245Z,990.98
2022-08-01T03:33:40.972Z,990.95
2022-08-01T03:34:42.687Z,990.99
2022-08-01T03:35:44.352Z,990.97
2022-08-01T03:36:46.109Z,990.97
2022-08-01T03:38:13.474Z,991.07
2022-08-01T03:38:49.592Z,991.04
2022-08-01T03:39:51.257Z,991.02
2022-08-01T03:40:53.113Z,991.03
2022-08-01T03:41:56.839Z,991.12
2022-08-01T03:42:56.448Z,991.1
2022-08-01T03:43:58.600Z,991.15
2022-08-01T03:44:59.867Z,991.16
2022-08-01T03:46:01.643Z,991.15
2022-08-01T03:47:03.203Z,991.18
2022-08-01T03:48:05.069Z,991.17
2022-08-01T03:49:06.802Z,991.18
2022-08-01T03:50:12.354Z,991.2
2022-08-01T03:51:10.291Z,991.17
2022-08-01T03:52:11.965Z,991.23
2022-08-01T03:53:13.616Z,991.17
2022-08-01T03:54:15.339Z,991.21
2022-08-01T03:55:17.153Z,991.22
2022-08-01T03:56:18.748Z,991.19
2022-08-01T03:57:34.959Z,991.19
2022-08-01T03:58:22.384Z,991.17
2022-08-01T03:59:24.019Z,991.12
2022-08-01T04:00:25.696Z,991.18
2022-08-01T04:01:27.540Z,991.17
2022-08-01T04:02:29.193Z,991.16
2022-08-01T04:03:31.273Z,991.17
2022-08-01T04:04:32.701Z,991.18
2022-08-01T04:05:34.558Z,991.17
2022-08-01T04:06:36.219Z,991.14
2022-08-01T04:07:37.997Z,991.19
2022-08-01T04:08:39.630Z,991.19
2022-08-01T04:09:41.608Z,991.19
2022-08-01T04:10:43.047Z,991.24
2022-08-01T04:11:44.993Z,991.24
2022-08-01T04:12:46.657Z,991.25
2022-08-01T04:13:48.256Z,991.3
2022-08-01T04:14:50.190Z,991.31
2022-08-01T04:15:51.780Z,991.31
2022-08-01T04:16:53.594Z,991.26
2022-08-01T04:17:55.262Z,991.26
2022-08-01T04:18:57.063Z,991.22
2022-08-01T04:19:58.680Z,991.22
2022-08-01T04:21:00.400Z,991.18
2022-08-01T04:22:02.548Z,991.23
2022-08-01T04:23:04.062Z,991.26
2022-08-01T04:24:05.715Z,991.26
2022-08-01T04:25:07.326Z,991.25
2022-08-01T04:26:09.148Z,991.28
2022-08-01T04:27:10.814Z,991.31
2022-08-01T04:28:12.796Z,991.31
2022-08-01T04:29:14.271Z,991.32
2022-08-01T04:30:18.120Z,991.31
2022-08-01T04:31:17.819Z,991.32
2022-08-01T04:32:19.604Z,991.3
2022-08-01T04:33:21.219Z,991.34
2022-08-01T04:34:23.067Z,991.33
2022-08-01T04:36:01.943Z,991.34
2022-08-01T04:36:26.476Z,991.38
2022-08-01T04:37:28.150Z,991.4
2022-08-01T04:38:29.913Z,991.4
2022-08-01T04:39:31.796Z,991.38
2022-08-01T04:40:33.498Z,991.41
2022-08-01T04:41:35.382Z,991.46
2022-08-01T04:42:36.891Z,991.49
2022-08-01T04:43:38.588Z,991.47
2022-08-01T04:44:40.359Z,991.49
2022-08-01T04:45:42.026Z,991.56
2022-08-01T04:46:43.825Z,991.55
2022-08-01T04:47:45.994Z,991.55
2022-08-01T04:48:47.522Z,991.58
2022-08-01T04:49:49.497Z,991.55
2022-08-01T04:50:50.876Z,991.54
2022-08-01T04:51:52.512Z,991.53
2022-08-01T04:52:54.316Z,991.48
2022-08-01T04:53:55.903Z,991.5
2022-08-01T04:54:57.798Z,991.48
2022-08-01T04:55:59.518Z,991.52
2022-08-01T04:57:01.263Z,991.49
2022-08-01T04:58:03.041Z,991.47
2022-08-01T04:59:04.586Z,991.55
2022-08-01T05:00:06.601Z,991.54
2022-08-01T05:01:08.134Z,991.53
2022-08-01T05:02:10.198Z,991.55
2022-08-01T05:03:11.646Z,991.54
2022-08-01T05:04:13.343Z,991.56
2022-08-01T05:05:15.125Z,991.6
2022-08-01T05:06:16.784Z,991.55
2022-08-01T05:07:18.552Z,991.62
2022-08-01T05:08:20.192Z,991.6
2022-08-01T05:09:21.936Z,991.61
2022-08-01T05:10:23.684Z,991.62
2022-08-01T05:11:25.462Z,991.64
2022-08-01T05:12:27.203Z,991.65
2022-08-01T05:13:29.076Z,991.56
2022-08-01T05:14:31.170Z,991.62
2022-08-01T05:15:32.620Z,991.61
2022-08-01T05:16:34.352Z,991.57
2022-08-01T05:17:36.083Z,991.57
2022-08-01T05:18:37.898Z,991.59
2022-08-01T05:19:39.661Z,991.64
2022-08-01T05:20:41.478Z,991.64
2022-08-01T05:21:43.088Z,991.62
2022-08-01T05:22:44.839Z,991.69
2022-08-01T05:23:46.576Z,991.66
2022-08-01T05:24:48.232Z,991.67
2022-08-01T05:25:56.695Z,991.71
2022-08-01T05:26:51.777Z,991.73
2022-08-01T05:27:53.473Z,991.75
2022-08-01T05:28:55.105Z,991.74
2022-08-01T05:29:56.909Z,991.77
2022-08-01T05:30:58.715Z,991.76
2022-08-01T05:32:00.587Z,991.8
2022-08-01T05:33:02.414Z,991.77
2022-08-01T05:34:04.013Z,991.79
2022-08-01T05:35:05.629Z,991.78
2022-08-01T05:36:07.241Z,991.74
2022-08-01T05:37:09.093Z,991.8
2022-08-01T05:38:14.134Z,991.79
2022-08-01T05:39:12.816Z,991.77
2022-08-01T05:40:14.315Z,991.8
2022-08-01T05:41:15.942Z,991.8
2022-08-01T05:42:17.785Z,991.8
2022-08-01T05:43:19.608Z,991.84
2022-08-01T05:44:21.251Z,991.84
2022-08-01T05:45:22.682Z,991.84
2022-08-01T05:46:26.256Z,991.84
2022-08-01T05:47:26.127Z,991.85
2022-08-01T05:48:28.036Z,991.85
2022-08-01T05:49:29.849Z,991.83
2022-08-01T05:50:31.531Z,991.81
2022-08-01T05:51:33.205Z,991.82
2022-08-01T05:52:34.814Z,991.81
2022-08-01T05:53:36.605Z,991.84
2022-08-01T05:54:38.272Z,991.81
2022-08-01T05:55:40.078Z,991.74
2022-08-01T05:56:41.771Z,991.77
2022-08-01T05:57:43.483Z,991.73
2022-08-01T05:58:45.239Z,991.72
2022-08-01T05:59:47.089Z,991.74
2022-08-01T06:00:48.685Z,991.75
2022-08-01T06:01:50.471Z,991.78
2022-08-01T06:02:52.299Z,991.8
2022-08-01T06:03:53.885Z,991.75
2022-08-01T06:04:55.617Z,991.75
2022-08-01T06:05:57.491Z,991.75
2022-08-01T06:06:59.152Z,991.79
2022-08-01T06:08:00.826Z,991.79
2022-08-01T06:09:02.752Z,991.8
2022-08-01T06:10:04.422Z,991.79
2022-08-01T06:11:06.093Z,991.82
2022-08-01T06:12:08.303Z,991.84
2022-08-01T06:13:09.513Z,991.84
2022-08-01T06:14:11.546Z,991.78
2022-08-01T06:15:13.138Z,991.84
2022-08-01T06:16:14.836Z,991.85
2022-08-01T06:17:16.440Z,991.87
2022-08-01T06:18:18.343Z,991.9
2022-08-01T06:19:19.924Z,991.94
2022-08-01T06:20:21.648Z,991.92
2022-08-01T06:21:23.445Z,991.91
2022-08-01T06:22:25.120Z,991.9
2022-08-01T06:23:32.593Z,991.95
2022-08-01T06:24:28.783Z,991.89
2022-08-01T06:25:30.330Z,991.93
2022-08-01T06:26:32.056Z,991.93
2022-08-01T06:27:33.911Z,991.96
2022-08-01T06:28:35.516Z,991.94
2022-08-01T06:29:37.398Z,991.91
2022-08-01T06:30:38.988Z,991.97
2022-08-01T06:31:40.727Z,991.97
2022-08-01T06:32:42.618Z,992
2022-08-01T06:33:44.246Z,992
2022-08-01T06:34:46.057Z,992
2022-08-01T06:35:47.661Z,991.98
2022-08-01T06:36:49.401Z,991.95
2022-08-01T06:37:51.667Z,991.99
2022-08-01T06:38:52.982Z,991.98
2022-08-01T06:39:54.944Z,992.03
2022-08-01T06:40:56.675Z,991.96
2022-08-01T06:41:58.446Z,991.95
2022-08-01T06:43:00.326Z,992
2022-08-01T06:44:01.801Z,991.97
2022-08-01T06:45:03.632Z,991.93
2022-08-01T06:46:06.456Z,991.93
2022-08-01T06:47:07.150Z,991.9
2022-08-01T06:48:08.798Z,991.91
2022-08-01T06:49:10.664Z,991.93
2022-08-01T06:50:12.336Z,991.92
2022-08-01T06:51:14.113Z,991.9
2022-08-01T06:52:15.742Z,991.91
2022-08-01T06:53:17.557Z,991.95
2022-08-01T06:54:19.287Z,991.97
2022-08-01T06:55:20.873Z,991.98
2022-08-01T06:56:22.674Z,992.02
2022-08-01T06:57:24.583Z,992.03
2022-08-01T06:58:31.655Z,992.03
2022-08-01T06:59:27.943Z,992.07
2022-08-01T07:00:30.199Z,991.93
2022-08-01T07:01:35.029Z,992.03
2022-08-01T07:02:33.529Z,992.02
2022-08-01T07:03:53.823Z,991.96
2022-08-01T07:04:36.996Z,991.98
2022-08-01T07:05:38.301Z,992.01
2022-08-01T07:06:39.915Z,991.97
2022-08-01T07:07:42.014Z,991.93
2022-08-01T07:08:43.552Z,991.94
2022-08-01T07:09:45.200Z,991.93
2022-08-01T07:10:46.962Z,991.94
2022-08-01T07:11:48.652Z,991.91
2022-08-01T07:12:50.433Z,991.92
2022-08-01T07:13:52.128Z,991.86
2022-08-01T07:14:53.984Z,991.86
2022-08-01T07:15:55.634Z,991.85
2022-08-01T07:16:57.255Z,991.86
2022-08-01T07:17:59.227Z,991.81
2022-08-01T07:19:00.863Z,991.83
2022-08-01T07:20:02.578Z,991.81
2022-08-01T07:21:07.356Z,991.84
2022-08-01T07:22:06.403Z,991.87
2022-08-01T07:23:08.107Z,991.85
2022-08-01T07:24:13.004Z,991.85
2022-08-01T07:25:11.320Z,991.83
2022-08-01T07:26:13.007Z,991.86
2022-08-01T07:27:25.729Z,991.82
2022-08-01T07:28:16.501Z,991.87
2022-08-01T07:29:18.224Z,991.85
2022-08-01T07:30:20.415Z,991.87
2022-08-01T07:31:21.879Z,991.87
2022-08-01T07:32:23.437Z,991.88
2022-08-01T07:33:24.939Z,991.82
2022-08-01T07:34:26.924Z,991.83
2022-08-01T07:35:28.374Z,991.84
2022-08-01T07:36:30.404Z,991.84
2022-08-01T07:37:48.317Z,991.8
2022-08-01T07:38:33.785Z,991.8
2022-08-01T07:39:35.600Z,991.82
2022-08-01T07:40:37.271Z,991.81
2022-08-01T07:41:52.964Z,991.8
2022-08-01T07:42:40.812Z,991.8
2022-08-01T07:43:50.537Z,991.77
2022-08-01T07:44:44.133Z,991.77
2022-08-01T07:45:46.469Z,991.76
2022-08-01T07:46:47.582Z,991.75
2022-08-01T07:47:49.289Z,991.78
2022-08-01T07:48:51.172Z,991.81
2022-08-01T07:49:52.801Z,991.83
2022-08-01T07:50:54.495Z,991.8
2022-08-01T07:52:02.408Z,991.77
2022-08-01T07:52:57.783Z,991.76
2022-08-01T07:53:59.467Z,991.77
2022-08-01T07:55:01.478Z,991.83
2022-08-01T07:56:10.362Z,991.82
2022-08-01T07:57:04.942Z,991.8
2022-08-01T07:58:06.679Z,991.77
2022-08-01T07:59:08.328Z,991.8
2022-08-01T08:00:10.490Z,991.81
2022-08-01T08:01:11.522Z,991.83
2022-08-01T08:02:14.036Z,991.84
2022-08-01T08:03:15.779Z,991.84
2022-08-01T08:04:17.430Z,991.87
2022-08-01T08:05:57.639Z,991.88
2022-08-01T08:06:20.968Z,991.86
2022-08-01T08:07:23.102Z,991.86
2022-08-01T08:08:24.042Z,991.89
2022-08-01T08:09:25.654Z,991.9
2022-08-01T08:10:27.272Z,991.88
2022-08-01T08:11:29.947Z,991.91
2022-08-01T08:12:30.770Z,991.89
2022-08-01T08:13:32.645Z,991.9
2022-08-01T08:14:34.440Z,991.92
2022-08-01T08:15:36.115Z,991.9
2022-08-01T08:16:37.744Z,991.87
2022-08-01T08:17:39.373Z,991.85
2022-08-01T08:18:41.347Z,991.89
2022-08-01T08:19:42.931Z,991.93
2022-08-01T08:20:44.723Z,991.95
2022-08-01T08:21:46.549Z,991.96
2022-08-01T08:22:48.103Z,991.96
2022-08-01T08:23:49.920Z,991.96
2022-08-01T08:24:51.807Z,991.98
2022-08-01T08:25:53.412Z,991.96
2022-08-01T08:26:55.155Z,991.97
2022-08-01T08:27:56.939Z,992
2022-08-01T08:28:58.673Z,991.97
2022-08-01T08:30:00.515Z,991.98
2022-08-01T08:31:02.736Z,991.99
2022-08-01T08:32:04.049Z,992
2022-08-01T08:33:05.601Z,992.01
2022-08-01T08:34:07.265Z,992.03
2022-08-01T08:35:09.080Z,992.01
2022-08-01T08:36:10.752Z,992
2022-08-01T08:37:12.549Z,992.03
2022-08-01T08:38:14.276Z,992.01
2022-08-01T08:39:16.013Z,992.01
2022-08-01T08:40:17.603Z,992.03
2022-08-01T08:41:21.182Z,991.95
2022-08-01T08:42:21.223Z,992
2022-08-01T08:43:22.742Z,991.97
2022-08-01T08:44:24.688Z,992.01
2022-08-01T08:45:50.312Z,991.99
2022-08-01T08:46:28.464Z,991.97
2022-08-01T08:47:29.920Z,991.98
2022-08-01T08:48:31.603Z,992
2022-08-01T08:49:35.501Z,991.94
2022-08-01T08:50:34.956Z,991.93
2022-08-01T08:51:36.881Z,991.89
2022-08-01T08:52:38.536Z,991.9
2022-08-01T08:53:40.357Z,991.89
2022-08-01T08:54:42.362Z,991.88
2022-08-01T08:55:56.454Z,991.85
2022-08-01T08:56:45.497Z,991.81
2022-08-01T08:57:47.063Z,991.8
2022-08-01T08:58:48.967Z,991.81
2022-08-01T08:59:50.750Z,991.81
2022-08-01T09:00:52.994Z,991.77
2022-08-01T09:01:54.527Z,991.77
2022-08-01T09:02:56.495Z,991.78
2022-08-01T09:03:57.825Z,991.8
2022-08-01T09:04:59.624Z,991.8
2022-08-01T09:06:01.530Z,991.77
2022-08-01T09:07:03.423Z,991.8
2022-08-01T09:08:04.641Z,991.79
2022-08-01T09:09:06.329Z,991.79
2022-08-01T09:10:08.072Z,991.77
2022-08-01T09:11:09.651Z,991.81
2022-08-01T09:12:11.737Z,991.75
2022-08-01T09:13:14.642Z,991.73
2022-08-01T09:14:16.220Z,991.7
2022-08-01T09:15:16.744Z,991.71
2022-08-01T09:16:18.381Z,991.69
2022-08-01T09:17:20.288Z,991.74
2022-08-01T09:18:22.116Z,991.68
2022-08-01T09:19:38.907Z,991.75
2022-08-01T09:20:25.224Z,991.75
2022-08-01T09:21:27.173Z,991.69
2022-08-01T09:22:28.690Z,991.74
2022-08-01T09:23:30.369Z,991.76
2022-08-01T09:24:32.605Z,991.75
2022-08-01T09:25:46.016Z,991.76
2022-08-01T09:26:35.706Z,991.72
2022-08-01T09:27:37.574Z,991.72
2022-08-01T09:28:39.324Z,991.77
2022-08-01T09:29:41.224Z,991.78
2022-08-01T09:30:43.565Z,991.8
2022-08-01T09:31:47.317Z,991.74
2022-08-01T09:32:46.201Z,991.77
2022-08-01T09:33:47.944Z,991.76
2022-08-01T09:34:49.597Z,991.77
2022-08-01T09:35:51.345Z,991.74
2022-08-01T09:36:54.388Z,991.79
2022-08-01T09:37:54.805Z,991.81
2022-08-01T09:38:56.488Z,991.78
2022-08-01T09:39:58.339Z,991.84
2022-08-01T09:41:00.190Z,991.84
2022-08-01T09:42:01.812Z,991.84
2022-08-01T09:43:03.446Z,991.83
2022-08-01T09:44:05.265Z,991.82
2022-08-01T09:45:07.320Z,991.84
2022-08-01T09:46:12.510Z,991.85
2022-08-01T09:47:10.527Z,991.79
2022-08-01T09:48:12.410Z,991.8
2022-08-01T09:49:14.058Z,991.78
2022-08-01T09:50:15.641Z,991.79
2022-08-01T09:51:57.779Z,991.79
2022-08-01T09:52:19.226Z,991.82
2022-08-01T09:53:25.670Z,991.78
2022-08-01T09:54:22.958Z,991.78
2022-08-01T09:55:24.342Z,991.79
2022-08-01T09:56:26.156Z,991.75
2022-08-01T09:57:27.866Z,991.75
2022-08-01T09:58:29.612Z,991.8
2022-08-01T09:59:36.226Z,991.76
2022-08-01T10:00:44.205Z,991.78
2022-08-01T10:01:36.897Z,991.76
2022-08-01T10:02:37.049Z,991.79
2022-08-01T10:03:38.513Z,991.82
2022-08-01T10:04:40.281Z,991.8
2022-08-01T10:05:41.969Z,991.76
2022-08-01T10:06:44.041Z,991.83
2022-08-01T10:07:45.053Z,991.8
2022-08-01T10:08:46.910Z,991.81
2022-08-01T10:09:48.578Z,991.75
2022-08-01T10:10:50.318Z,991.72
2022-08-01T10:11:51.969Z,991.71
2022-08-01T10:12:53.871Z,991.73
2022-08-01T10:13:55.580Z,991.75
2022-08-01T10:14:57.328Z,991.75
2022-08-01T10:15:59.052Z,991.72
2022-08-01T10:17:05.370Z,991.71
2022-08-01T10:18:03.129Z,991.67
2022-08-01T10:19:04.277Z,991.72
2022-08-01T10:20:05.926Z,991.69
2022-08-01T10:21:08.760Z,991.67
2022-08-01T10:22:09.371Z,991.68
2022-08-01T10:23:11.161Z,991.69
2022-08-01T10:24:13.111Z,991.7
2022-08-01T10:25:14.562Z,991.68
2022-08-01T10:26:16.294Z,991.72
2022-08-01T10:27:24.306Z,991.68
2022-08-01T10:28:21.257Z,991.71
2022-08-01T10:29:44.897Z,991.63
2022-08-01T10:30:24.489Z,991.69
2022-08-01T10:31:30.721Z,991.68
2022-08-01T10:32:28.901Z,991.67
2022-08-01T10:33:52.806Z,991.68
2022-08-01T10:34:30.274Z,991.65
2022-08-01T10:35:47.409Z,991.61
2022-08-01T10:36:33.701Z,991.58
2022-08-01T10:37:35.477Z,991.61
2022-08-01T10:38:37.540Z,991.54
2022-08-01T10:39:38.832Z,991.55
2022-08-01T10:40:40.621Z,991.55
2022-08-01T10:41:42.410Z,991.53
2022-08-01T10:42:44.176Z,991.51
2022-08-01T10:43:47.096Z,991.5
2022-08-01T10:44:48.168Z,991.48
2022-08-01T10:45:49.145Z,991.53
2022-08-01T10:46:51.006Z,991.52
2022-08-01T10:47:53.050Z,991.56
2022-08-01T10:48:54.752Z,991.51
2022-08-01T10:49:56.400Z,991.5
2022-08-01T10:50:58.080Z,991.49
2022-08-01T10:51:59.815Z,991.47
2022-08-01T10:53:05.596Z,991.43
2022-08-01T10:54:03.445Z,991.43
2022-08-01T10:55:05.072Z,991.45
2022-08-01T10:56:07.769Z,991.42
2022-08-01T10:57:08.914Z,991.43
2022-08-01T10:58:10.085Z,991.42
2022-08-01T10:59:12.152Z,991.39
2022-08-01T11:00:13.969Z,991.38
2022-08-01T11:01:15.590Z,991.4
2022-08-01T11:02:17.329Z,991.34
2022-08-01T11:03:31.012Z,991.39
2022-08-01T11:04:20.971Z,991.33
2022-08-01T11:05:23.986Z,991.35
2022-08-01T11:06:24.615Z,991.29
2022-08-01T11:07:26.081Z,991.33
2022-08-01T11:08:27.780Z,991.32
2022-08-01T11:09:36.116Z,991.3
2022-08-01T11:10:30.916Z,991.27
2022-08-01T11:11:37.650Z,991.26
2022-08-01T11:12:34.461Z,991.28
2022-08-01T11:13:36.118Z,991.32
2022-08-01T11:14:55.306Z,991.37
2022-08-01T11:15:49.910Z,991.33
2022-08-01T11:16:41.403Z,991.32
2022-08-01T11:17:43.378Z,991.31
2022-08-01T11:18:44.870Z,991.32
2022-08-01T11:19:46.677Z,991.34
2022-08-01T11:20:48.201Z,991.29
2022-08-01T11:21:57.472Z,991.32
2022-08-01T11:22:51.841Z,991.31
2022-08-01T11:23:53.588Z,991.29
2022-08-01T11:24:55.308Z,991.29
2022-08-01T11:26:03.482Z,991.3
2022-08-01T11:26:58.665Z,991.24
2022-08-01T11:28:00.765Z,991.2
2022-08-01T11:29:19.352Z,991.19
2022-08-01T11:30:04.583Z,991.17
2022-08-01T11:31:10.978Z,991.17
2022-08-01T11:32:07.752Z,991.14
2022-08-01T11:33:11.078Z,991.11
2022-08-01T11:34:10.889Z,991.14
2022-08-01T11:35:12.538Z,991.2
2022-08-01T11:36:15.513Z,991.17
2022-08-01T11:37:16.097Z,991.17
2022-08-01T11:38:17.836Z,991.17
2022-08-01T11:39:19.501Z,991.18
2022-08-01T11:40:22.930Z,991.15
2022-08-01T11:41:36.881Z,991.12
2022-08-01T11:42:24.760Z,991.12
2022-08-01T11:43:26.501Z,991.08
2022-08-01T11:44:30.336Z,991.06
2022-08-01T11:45:29.863Z,991.06
2022-08-01T11:46:31.709Z,991.01
2022-08-01T11:47:36.805Z,991.03
2022-08-01T11:48:35.247Z,991.04
2022-08-01T11:49:37.013Z,991.05
2022-08-01T11:50:39.055Z,991.01
2022-08-01T11:51:40.481Z,991.01
2022-08-01T11:52:41.999Z,990.93
2022-08-01T11:53:43.918Z,990.97
2022-08-01T11:54:45.619Z,990.98
2022-08-01T11:55:51.292Z,990.95
2022-08-01T11:56:49.080Z,990.98
2022-08-01T11:57:50.836Z,990.91
2022-08-01T11:58:52.568Z,990.92
2022-08-01T12:00:03.854Z,990.9
2022-08-01T12:00:56.314Z,990.92
2022-08-01T12:01:58.085Z,990.88
2022-08-01T12:03:00.116Z,990.89
2022-08-01T12:04:01.400Z,990.92
2022-08-01T12:05:03.675Z,990.92
2022-08-01T12:06:11.971Z,990.92
2022-08-01T12:07:07.164Z,990.9
2022-08-01T12:08:08.510Z,990.91
2022-08-01T12:09:12.108Z,990.94
2022-08-01T12:10:11.567Z,990.89
2022-08-01T12:11:13.456Z,990.91
2022-08-01T12:12:15.105Z,990.91
2022-08-01T12:13:16.868Z,990.86
2022-08-01T12:14:18.460Z,990.83
2022-08-01T12:15:20.342Z,990.83
2022-08-01T12:16:23.964Z,990.83
2022-08-01T12:17:23.743Z,990.83
2022-08-01T12:18:25.474Z,990.82
2022-08-01T12:19:27.074Z,990.82
2022-08-01T12:20:30.997Z,990.87
2022-08-01T12:21:30.656Z,990.86
2022-08-01T12:22:32.441Z,990.83
2022-08-01T12:23:34.164Z,990.88
2022-08-01T12:24:35.738Z,990.8
2022-08-01T12:25:37.692Z,990.85
2022-08-01T12:26:39.517Z,990.83
2022-08-01T12:27:40.989Z,990.85
2022-08-01T12:28:43.035Z,990.83
2022-08-01T12:29:44.545Z,990.8
2022-08-01T12:30:46.670Z,990.81
2022-08-01T12:31:48.407Z,990.82
2022-08-01T12:32:50.116Z,990.78
2022-08-01T12:33:51.581Z,990.84
2022-08-01T12:34:53.434Z,990.81
2022-08-01T12:35:55.004Z,990.82
2022-08-01T12:36:56.556Z,990.81
2022-08-01T12:37:58.287Z,990.78
2022-08-01T12:38:59.948Z,990.84
2022-08-01T12:40:02.013Z,990.78
2022-08-01T12:41:03.579Z,990.72
2022-08-01T12:42:05.380Z,990.74
2022-08-01T12:43:08.695Z,990.72
2022-08-01T12:44:08.772Z,990.72
2022-08-01T12:45:10.568Z,990.76
2022-08-01T12:46:12.259Z,990.76
2022-08-01T12:47:13.978Z,990.8
2022-08-01T12:48:15.767Z,990.79
2022-08-01T12:49:17.576Z,990.82
2022-08-01T12:50:19.236Z,990.78
2022-08-01T12:51:20.933Z,990.79
2022-08-01T12:52:22.708Z,990.78
2022-08-01T12:53:24.539Z,990.77